Time,TemperatureF,DewpointF,PressureIn,WindDirection,WindDirectionDegrees,WindSpeedMPH,WindSpeedGustMPH,Humidity,HourlyPrecipIn,Conditions,Clouds,dailyrainin,SolarRadiationWatts/m^2,SoftwareType,DateUTC
2013-02-24 00:00:00,34.9,33.3,29.87,South,177,0.0,1.0,94,0.00,,,0.02,0.0,meteohub,2013-02-24 05:00:00,
2013-02-24 00:01:00,34.9,33.3,29.87,South,177,1.0,1.0,94,0.00,,,0.02,0.0,meteohub,2013-02-24 05:01:00,
2013-02-24 00:02:00,34.9,33.3,29.87,South,177,0.0,1.0,94,0.00,,,0.02,0.0,meteohub,2013-02-24 05:02:00,
2013-02-24 00:07:00,34.7,32.9,29.87,South,177,0.0,1.0,93,0.00,,,0.02,0.0,meteohub,2013-02-24 05:07:00,
2013-02-24 00:13:00,34.7,32.9,29.87,South,177,0.0,1.0,93,0.00,,,0.02,0.0,meteohub,2013-02-24 05:13:00,
2013-02-24 00:18:00,34.5,32.7,29.87,South,177,1.0,1.0,93,0.00,,,0.01,0.0,meteohub,2013-02-24 05:18:00,
2013-02-24 00:23:00,34.5,32.7,29.87,South,177,0.0,2.0,93,0.01,,,0.01,0.0,meteohub,2013-02-24 05:23:00,
2013-02-24 00:28:00,34.5,32.9,29.87,South,177,0.0,2.0,94,0.01,,,0.01,0.0,meteohub,2013-02-24 05:28:00,
2013-02-24 00:34:00,34.3,32.7,29.87,South,177,0.0,2.0,94,0.01,,,0.01,0.0,meteohub,2013-02-24 05:34:00,
2013-02-24 00:39:00,34.3,32.7,29.87,South,177,0.0,2.0,94,0.01,,,0.01,0.0,meteohub,2013-02-24 05:39:00,
2013-02-24 00:44:00,34.3,32.7,29.87,South,177,0.0,2.0,94,0.01,,,0.01,0.0,meteohub,2013-02-24 05:44:00,
2013-02-24 00:50:00,34.3,32.7,29.87,South,177,0.0,0.0,94,0.01,,,0.01,0.0,meteohub,2013-02-24 05:50:00,
2013-02-24 00:55:00,34.2,32.5,29.87,South,177,0.0,0.0,94,0.01,,,0.01,0.0,meteohub,2013-02-24 05:55:00,
2013-02-24 01:00:00,34.2,32.4,29.87,SE,141,0.0,1.0,93,0.01,,,0.01,0.0,meteohub,2013-02-24 06:00:00,
2013-02-24 01:06:00,34.0,32.2,29.86,SE,140,0.0,1.0,93,0.01,,,0.01,0.0,meteohub,2013-02-24 06:06:00,
2013-02-24 01:11:00,34.0,32.2,29.86,SE,140,0.0,2.0,93,0.01,,,0.01,0.0,meteohub,2013-02-24 06:11:00,
2013-02-24 01:16:00,33.8,32.0,29.86,SE,140,0.0,2.0,93,0.01,,,0.01,0.0,meteohub,2013-02-24 06:16:00,
2013-02-24 01:21:00,33.8,32.2,29.86,SE,140,0.0,0.0,94,0.00,,,0.01,0.0,meteohub,2013-02-24 06:21:00,
2013-02-24 01:27:00,33.6,32.0,29.85,SE,140,0.0,0.0,94,0.00,,,0.01,0.0,meteohub,2013-02-24 06:27:00,
2013-02-24 01:32:00,33.6,32.0,29.85,SE,140,0.0,0.0,94,0.00,,,0.01,0.0,meteohub,2013-02-24 06:32:00,
2013-02-24 01:37:00,33.6,32.0,29.85,SE,140,0.0,0.0,94,0.00,,,0.01,0.0,meteohub,2013-02-24 06:37:00,
2013-02-24 01:42:00,33.6,32.0,29.85,SE,140,0.0,0.0,94,0.00,,,0.01,0.0,meteohub,2013-02-24 06:42:00,
2013-02-24 01:47:00,33.4,31.6,29.85,SE,140,0.0,0.0,93,0.00,,,0.01,0.0,meteohub,2013-02-24 06:47:00,
2013-02-24 01:52:00,33.4,31.6,29.84,SE,141,0.0,0.0,93,0.00,,,0.01,0.0,meteohub,2013-02-24 06:52:00,
2013-02-24 01:57:00,33.4,31.6,29.84,SE,140,0.0,0.0,93,0.00,,,0.01,0.0,meteohub,2013-02-24 06:57:00,
2013-02-24 02:02:00,33.4,31.6,29.84,SE,140,0.0,0.0,93,0.00,,,0.01,0.0,meteohub,2013-02-24 07:02:00,
2013-02-24 02:07:00,33.3,31.5,29.84,SE,140,0.0,0.0,93,0.00,,,0.01,0.0,meteohub,2013-02-24 07:07:00,
2013-02-24 02:12:00,33.3,31.5,29.84,SE,140,0.0,1.0,93,0.00,,,0.01,0.0,meteohub,2013-02-24 07:12:00,
2013-02-24 02:18:00,33.3,31.6,29.84,SE,140,0.0,1.0,94,0.00,,,0.01,0.0,meteohub,2013-02-24 07:18:00,
2013-02-24 02:23:00,33.3,31.6,29.84,SE,140,0.0,1.0,94,0.00,,,0.01,0.0,meteohub,2013-02-24 07:23:00,
2013-02-24 02:28:00,33.3,31.6,29.84,SE,140,0.0,1.0,94,0.00,,,0.01,0.0,meteohub,2013-02-24 07:28:00,
2013-02-24 02:34:00,33.3,31.6,29.84,SE,140,0.0,1.0,94,0.00,,,0.02,0.0,meteohub,2013-02-24 07:34:00,
2013-02-24 02:39:00,33.1,31.5,29.84,SE,140,0.0,0.0,94,0.01,,,0.02,0.0,meteohub,2013-02-24 07:39:00,
2013-02-24 02:44:00,33.1,31.5,29.83,SE,140,0.0,0.0,94,0.01,,,0.02,0.0,meteohub,2013-02-24 07:44:00,
2013-02-24 02:50:00,33.1,31.5,29.83,SE,140,0.0,0.0,94,0.01,,,0.02,0.0,meteohub,2013-02-24 07:50:00,
2013-02-24 02:55:00,33.1,31.5,29.83,SE,140,0.0,0.0,94,0.01,,,0.02,0.0,meteohub,2013-02-24 07:55:00,
2013-02-24 03:00:00,33.1,31.5,29.83,SE,141,0.0,0.0,94,0.01,,,0.02,0.0,meteohub,2013-02-24 08:00:00,
2013-02-24 03:05:00,33.1,31.5,29.83,SE,140,0.0,0.0,94,0.01,,,0.02,0.0,meteohub,2013-02-24 08:05:00,
2013-02-24 03:11:00,33.1,31.5,29.82,SE,140,0.0,0.0,94,0.01,,,0.02,0.0,meteohub,2013-02-24 08:11:00,
2013-02-24 03:16:00,33.1,31.5,29.82,SE,140,0.0,0.0,94,0.01,,,0.02,0.0,meteohub,2013-02-24 08:16:00,
2013-02-24 03:21:00,33.1,31.5,29.82,SE,140,0.0,0.0,94,0.01,,,0.02,0.0,meteohub,2013-02-24 08:21:00,
2013-02-24 03:27:00,33.1,31.5,29.81,SE,140,0.0,0.0,94,0.01,,,0.02,0.0,meteohub,2013-02-24 08:27:00,
2013-02-24 03:32:00,33.1,31.5,29.82,SE,140,0.0,0.0,94,0.01,,,0.02,0.0,meteohub,2013-02-24 08:32:00,
2013-02-24 03:37:00,33.1,31.5,29.81,SE,140,0.0,0.0,94,0.00,,,0.02,0.0,meteohub,2013-02-24 08:37:00,
2013-02-24 03:42:00,33.1,31.5,29.81,SE,140,0.0,0.0,94,0.00,,,0.02,0.0,meteohub,2013-02-24 08:42:00,
2013-02-24 03:47:00,32.9,31.3,29.82,SE,140,0.0,0.0,94,0.00,,,0.02,0.0,meteohub,2013-02-24 08:47:00,
2013-02-24 03:52:00,32.9,31.3,29.82,SE,140,0.0,0.0,94,0.00,,,0.02,0.0,meteohub,2013-02-24 08:52:00,
2013-02-24 03:57:00,32.9,31.3,29.82,SE,140,0.0,0.0,94,0.00,,,0.02,0.0,meteohub,2013-02-24 08:57:00,
2013-02-24 04:02:00,32.9,31.3,29.83,SE,140,0.0,0.0,94,0.00,,,0.02,0.0,meteohub,2013-02-24 09:02:00,
2013-02-24 04:07:00,32.9,31.3,29.83,SE,140,0.0,0.0,94,0.00,,,0.02,0.0,meteohub,2013-02-24 09:07:00,
2013-02-24 04:12:00,32.7,31.1,29.83,SE,141,0.0,0.0,94,0.00,,,0.02,0.0,meteohub,2013-02-24 09:12:00,
2013-02-24 04:17:00,32.7,31.1,29.82,SE,140,0.0,0.0,94,0.00,,,0.02,0.0,meteohub,2013-02-24 09:17:00,
2013-02-24 04:22:00,32.7,31.1,29.83,SE,140,0.0,0.0,94,0.00,,,0.02,0.0,meteohub,2013-02-24 09:22:00,
2013-02-24 04:28:00,32.9,31.3,29.83,SE,140,0.0,0.0,94,0.00,,,0.02,0.0,meteohub,2013-02-24 09:28:00,
2013-02-24 04:33:00,32.7,31.1,29.83,SE,140,0.0,0.0,94,0.00,,,0.02,0.0,meteohub,2013-02-24 09:33:00,
2013-02-24 04:38:00,32.7,31.1,29.84,SE,140,0.0,0.0,94,0.00,,,0.02,0.0,meteohub,2013-02-24 09:38:00,
2013-02-24 04:44:00,32.7,31.1,29.83,SE,140,0.0,0.0,94,0.00,,,0.02,0.0,meteohub,2013-02-24 09:44:00,
2013-02-24 04:49:00,32.7,31.1,29.83,SE,140,0.0,0.0,94,0.00,,,0.02,0.0,meteohub,2013-02-24 09:49:00,
2013-02-24 04:54:00,32.7,31.1,29.83,SE,140,0.0,0.0,94,0.00,,,0.02,0.0,meteohub,2013-02-24 09:54:00,
2013-02-24 04:59:00,32.7,31.1,29.83,SE,140,0.0,0.0,94,0.00,,,0.02,0.0,meteohub,2013-02-24 09:59:00,
2013-02-24 05:05:00,32.7,31.1,29.83,SE,140,0.0,0.0,94,0.00,,,0.02,0.0,meteohub,2013-02-24 10:05:00,
2013-02-24 05:10:00,32.7,31.1,29.82,SE,140,0.0,0.0,94,0.00,,,0.02,0.0,meteohub,2013-02-24 10:10:00,
2013-02-24 05:15:00,32.7,31.1,29.82,SE,140,0.0,0.0,94,0.00,,,0.02,0.0,meteohub,2013-02-24 10:15:00,
2013-02-24 05:21:00,32.7,31.1,29.82,SE,140,0.0,0.0,94,0.00,,,0.02,0.0,meteohub,2013-02-24 10:21:00,
2013-02-24 05:26:00,32.7,31.1,29.82,SE,140,0.0,0.0,94,0.00,,,0.02,0.0,meteohub,2013-02-24 10:26:00,
2013-02-24 05:31:00,32.7,31.1,29.82,SE,140,0.0,0.0,94,0.00,,,0.02,0.0,meteohub,2013-02-24 10:31:00,
2013-02-24 05:37:00,32.7,31.1,29.83,SE,140,0.0,0.0,94,0.00,,,0.02,0.0,meteohub,2013-02-24 10:37:00,
2013-02-24 05:42:00,32.7,31.1,29.83,SE,140,0.0,0.0,94,0.00,,,0.02,0.0,meteohub,2013-02-24 10:42:00,
2013-02-24 05:47:00,32.7,31.1,29.82,SE,140,0.0,0.0,94,0.00,,,0.02,0.0,meteohub,2013-02-24 10:47:00,
2013-02-24 05:52:00,32.7,31.1,29.82,SE,140,0.0,0.0,94,0.00,,,0.03,0.0,meteohub,2013-02-24 10:52:00,
2013-02-24 05:57:00,32.7,31.1,29.82,SE,140,0.0,0.0,94,0.01,,,0.03,0.0,meteohub,2013-02-24 10:57:00,
2013-02-24 06:02:00,32.7,31.1,29.82,SE,140,0.0,0.0,94,0.01,,,0.03,0.0,meteohub,2013-02-24 11:02:00,
2013-02-24 06:07:00,32.7,31.1,29.82,SE,140,0.0,0.0,94,0.01,,,0.03,0.0,meteohub,2013-02-24 11:07:00,
2013-02-24 06:13:00,32.7,31.1,29.82,SE,140,0.0,1.0,94,0.01,,,0.03,0.0,meteohub,2013-02-24 11:13:00,
2013-02-24 06:18:00,32.7,31.1,29.82,SE,140,0.0,1.0,94,0.01,,,0.03,0.0,meteohub,2013-02-24 11:18:00,
2013-02-24 06:23:00,32.7,31.1,29.82,SE,140,0.0,1.0,94,0.01,,,0.03,0.0,meteohub,2013-02-24 11:23:00,
2013-02-24 06:29:00,32.7,31.1,29.82,SE,141,0.0,1.0,94,0.01,,,0.03,0.0,meteohub,2013-02-24 11:29:00,
2013-02-24 06:34:00,32.7,31.1,29.82,SE,140,0.0,0.0,94,0.01,,,0.03,0.0,meteohub,2013-02-24 11:34:00,
2013-02-24 06:39:00,32.7,31.1,29.82,SE,140,0.0,0.0,94,0.01,,,0.03,0.0,meteohub,2013-02-24 11:39:00,
2013-02-24 06:45:00,32.7,31.1,29.82,SE,140,0.0,0.0,94,0.01,,,0.03,0.0,meteohub,2013-02-24 11:45:00,
2013-02-24 06:50:00,32.7,31.1,29.82,SE,140,0.0,0.0,94,0.01,,,0.03,0.0,meteohub,2013-02-24 11:50:00,
2013-02-24 06:55:00,32.7,31.1,29.82,SE,140,0.0,0.0,94,0.00,,,0.03,0.0,meteohub,2013-02-24 11:55:00,
2013-02-24 07:01:00,32.7,31.1,29.82,SE,140,0.0,0.0,94,0.00,,,0.03,0.0,meteohub,2013-02-24 12:01:00,
2013-02-24 07:06:00,32.7,31.1,29.83,SE,142,1.0,0.0,94,0.00,,,0.03,0.0,meteohub,2013-02-24 12:06:00,
2013-02-24 07:11:00,32.9,31.3,29.83,SE,142,0.0,0.0,94,0.00,,,0.03,0.0,meteohub,2013-02-24 12:11:00,
2013-02-24 07:17:00,32.9,31.3,29.83,SE,142,0.0,1.0,94,0.00,,,0.03,0.0,meteohub,2013-02-24 12:17:00,
2013-02-24 07:22:00,32.9,31.3,29.83,SE,142,0.0,1.0,94,0.00,,,0.03,0.0,meteohub,2013-02-24 12:22:00,
2013-02-24 07:27:00,32.9,31.3,29.83,SE,142,0.0,1.0,94,0.00,,,0.03,0.0,meteohub,2013-02-24 12:27:00,
2013-02-24 07:32:00,32.9,31.3,29.83,SE,142,0.0,1.0,94,0.00,,,0.03,5.0,meteohub,2013-02-24 12:32:00,
2013-02-24 07:37:00,33.1,31.5,29.83,SE,142,0.0,0.0,94,0.00,,,0.03,7.0,meteohub,2013-02-24 12:37:00,
2013-02-24 07:42:00,33.1,31.5,29.83,SE,142,0.0,0.0,94,0.00,,,0.03,9.0,meteohub,2013-02-24 12:42:00,
2013-02-24 07:47:00,33.1,31.5,29.83,SE,142,0.0,0.0,94,0.00,,,0.03,12.0,meteohub,2013-02-24 12:47:00,
2013-02-24 07:52:00,33.1,31.5,29.83,SE,142,0.0,0.0,94,0.00,,,0.04,14.0,meteohub,2013-02-24 12:52:00,
2013-02-24 07:57:00,33.1,31.5,29.83,WSW,245,1.0,0.0,94,0.01,,,0.04,14.0,meteohub,2013-02-24 12:57:00,
2013-02-24 08:02:00,33.1,31.5,29.83,WSW,246,0.0,2.0,94,0.01,,,0.04,21.0,meteohub,2013-02-24 13:02:00,
2013-02-24 08:07:00,33.3,31.6,29.82,WSW,245,0.0,2.0,94,0.01,,,0.04,28.0,meteohub,2013-02-24 13:07:00,
2013-02-24 08:12:00,33.3,31.6,29.82,West,271,1.0,2.0,94,0.01,,,0.04,30.0,meteohub,2013-02-24 13:12:00,
2013-02-24 08:17:00,33.4,31.8,29.82,West,271,0.0,2.0,94,0.01,,,0.04,30.0,meteohub,2013-02-24 13:17:00,
2013-02-24 08:22:00,33.6,32.0,29.82,West,271,0.0,3.0,94,0.01,,,0.04,32.0,meteohub,2013-02-24 13:22:00,
2013-02-24 08:28:00,33.6,32.0,29.82,WSW,249,0.0,3.0,94,0.01,,,0.04,40.0,meteohub,2013-02-24 13:28:00,
2013-02-24 08:33:00,34.0,32.4,29.82,WSW,242,0.0,3.0,94,0.01,,,0.04,58.0,meteohub,2013-02-24 13:33:00,
2013-02-24 08:38:00,34.0,32.4,29.81,WNW,292,0.0,3.0,94,0.01,,,0.04,81.0,meteohub,2013-02-24 13:38:00,
2013-02-24 08:44:00,34.2,32.9,29.81,SSE,147,0.0,3.0,95,0.01,,,0.05,91.0,meteohub,2013-02-24 13:44:00,
2013-02-24 08:49:00,34.3,33.1,29.81,West,269,1.0,3.0,95,0.01,,,0.05,79.0,meteohub,2013-02-24 13:49:00,
2013-02-24 08:54:00,34.3,33.1,29.81,WNW,288,0.0,4.0,95,0.01,,,0.05,83.0,meteohub,2013-02-24 13:54:00,
2013-02-24 08:59:00,34.5,32.9,29.81,WNW,287,1.0,4.0,94,0.01,,,0.05,77.0,meteohub,2013-02-24 13:59:00,
2013-02-24 09:05:00,34.5,32.9,29.81,WNW,300,2.0,4.0,94,0.01,,,0.05,69.0,meteohub,2013-02-24 14:05:00,
2013-02-24 09:10:00,34.7,33.1,29.81,WNW,303,3.0,4.0,94,0.01,,,0.05,44.0,meteohub,2013-02-24 14:10:00,
2013-02-24 09:15:00,34.7,33.1,29.81,WNW,303,2.0,4.0,94,0.01,,,0.05,42.0,meteohub,2013-02-24 14:15:00,
2013-02-24 09:21:00,34.7,33.1,29.81,WNW,303,0.0,3.0,94,0.01,,,0.05,40.0,meteohub,2013-02-24 14:21:00,
2013-02-24 09:26:00,34.5,32.9,29.81,WNW,303,1.0,3.0,94,0.01,,,0.05,44.0,meteohub,2013-02-24 14:26:00,
2013-02-24 09:31:00,34.5,32.9,29.81,West,280,0.0,3.0,94,0.01,,,0.05,42.0,meteohub,2013-02-24 14:31:00,
2013-02-24 09:37:00,34.5,32.9,29.81,SW,234,3.0,3.0,94,0.01,,,0.05,39.0,meteohub,2013-02-24 14:37:00,
2013-02-24 09:42:00,34.5,32.9,29.81,West,279,1.0,3.0,94,0.01,,,0.05,39.0,meteohub,2013-02-24 14:42:00,
2013-02-24 09:47:00,34.5,32.9,29.80,West,279,0.0,3.0,94,0.01,,,0.05,44.0,meteohub,2013-02-24 14:47:00,
2013-02-24 09:52:00,34.5,32.9,29.80,West,279,0.0,4.0,94,0.00,,,0.05,58.0,meteohub,2013-02-24 14:52:00,
2013-02-24 09:57:00,34.5,32.9,29.80,West,279,0.0,4.0,94,0.00,,,0.06,58.0,meteohub,2013-02-24 14:57:00,
2013-02-24 10:02:00,34.5,32.9,29.80,West,281,2.0,2.0,94,0.01,,,0.06,63.0,meteohub,2013-02-24 15:02:00,
2013-02-24 10:07:00,34.5,32.9,29.80,West,281,0.0,2.0,94,0.01,,,0.06,67.0,meteohub,2013-02-24 15:07:00,
2013-02-24 10:12:00,34.7,33.1,29.80,WNW,282,0.0,2.0,94,0.01,,,0.06,70.0,meteohub,2013-02-24 15:12:00,
2013-02-24 10:17:00,34.9,33.3,29.80,WNW,282,3.0,3.0,94,0.01,,,0.06,58.0,meteohub,2013-02-24 15:17:00,
2013-02-24 10:23:00,34.9,33.6,29.80,West,281,0.0,4.0,95,0.01,,,0.06,76.0,meteohub,2013-02-24 15:23:00,
2013-02-24 10:28:00,34.9,33.6,29.80,WNW,287,6.0,6.0,95,0.01,,,0.06,81.0,meteohub,2013-02-24 15:28:00,
2013-02-24 10:33:00,34.9,33.3,29.80,SW,223,0.0,4.0,94,0.01,,,0.06,90.0,meteohub,2013-02-24 15:33:00,
2013-02-24 10:39:00,35.1,33.8,29.80,SW,223,0.0,6.0,95,0.01,,,0.06,76.0,meteohub,2013-02-24 15:39:00,
2013-02-24 10:44:00,35.1,33.8,29.80,SW,223,0.0,6.0,95,0.01,,,0.06,74.0,meteohub,2013-02-24 15:44:00,
2013-02-24 10:50:00,35.1,33.4,29.80,SW,223,0.0,6.0,94,0.01,,,0.06,79.0,meteohub,2013-02-24 15:50:00,
2013-02-24 10:55:00,35.2,33.6,29.80,SW,223,0.0,2.0,94,0.01,,,0.06,81.0,meteohub,2013-02-24 15:55:00,
2013-02-24 11:00:00,35.4,33.8,29.80,SW,223,2.0,2.0,94,0.00,,,0.06,107.0,meteohub,2013-02-24 16:00:00,
2013-02-24 11:05:00,35.6,34.3,29.80,SW,223,0.0,2.0,95,0.00,,,0.06,102.0,meteohub,2013-02-24 16:05:00,
2013-02-24 11:11:00,35.8,34.2,29.80,SW,223,0.0,2.0,94,0.00,,,0.06,102.0,meteohub,2013-02-24 16:11:00,
2013-02-24 11:16:00,36.1,34.9,29.80,WSW,245,0.0,2.0,95,0.00,,,0.06,123.0,meteohub,2013-02-24 16:16:00,
2013-02-24 11:21:00,36.1,34.5,29.80,WSW,245,0.0,2.0,94,0.00,,,0.06,104.0,meteohub,2013-02-24 16:21:00,
2013-02-24 11:27:00,36.1,34.5,29.80,WSW,245,0.0,2.0,94,0.00,,,0.06,111.0,meteohub,2013-02-24 16:27:00,
2013-02-24 11:32:00,36.3,34.7,29.80,WSW,245,2.0,2.0,94,0.00,,,0.06,98.0,meteohub,2013-02-24 16:32:00,
2013-02-24 11:37:00,36.7,35.1,29.80,WSW,245,1.0,3.0,94,0.00,,,0.06,102.0,meteohub,2013-02-24 16:37:00,
2013-02-24 11:42:00,36.7,35.1,29.79,West,277,2.0,3.0,94,0.00,,,0.06,137.0,meteohub,2013-02-24 16:42:00,
2013-02-24 11:47:00,36.9,35.2,29.79,NW,304,9.0,9.0,94,0.00,,,0.06,125.0,meteohub,2013-02-24 16:47:00,
2013-02-24 11:52:00,36.9,35.2,29.79,WNW,284,1.0,10.0,94,0.00,,,0.06,134.0,meteohub,2013-02-24 16:52:00,
2013-02-24 11:57:00,37.0,35.4,29.79,West,262,1.0,10.0,94,0.00,,,0.06,178.0,meteohub,2013-02-24 16:57:00,
2013-02-24 12:02:00,37.2,35.6,29.79,North,351,0.0,10.0,94,0.00,,,0.06,200.0,meteohub,2013-02-24 17:02:00,
2013-02-24 12:07:00,37.4,35.6,29.79,West,279,4.0,10.0,93,0.00,,,0.06,213.0,meteohub,2013-02-24 17:07:00,
2013-02-24 12:12:00,37.8,36.0,29.78,WNW,283,4.0,10.0,93,0.00,,,0.06,253.0,meteohub,2013-02-24 17:12:00,
2013-02-24 12:17:00,38.1,36.0,29.79,NW,325,3.0,10.0,92,0.00,,,0.06,272.0,meteohub,2013-02-24 17:17:00,
2013-02-24 12:22:00,38.5,36.1,29.78,SW,215,3.0,10.0,91,0.00,,,0.06,229.0,meteohub,2013-02-24 17:22:00,
2013-02-24 12:27:00,38.7,36.0,29.79,NW,305,4.0,10.0,90,0.00,,,0.06,185.0,meteohub,2013-02-24 17:27:00,
2013-02-24 12:32:00,38.8,36.0,29.79,WNW,286,4.0,11.0,89,0.00,,,0.06,120.0,meteohub,2013-02-24 17:32:00,
2013-02-24 12:37:00,38.8,35.6,29.78,West,279,2.0,11.0,88,0.00,,,0.06,105.0,meteohub,2013-02-24 17:37:00,
2013-02-24 12:42:00,38.8,35.2,29.78,NNW,327,3.0,11.0,87,0.00,,,0.06,128.0,meteohub,2013-02-24 17:42:00,
2013-02-24 12:47:00,38.7,34.9,29.78,WNW,297,0.0,11.0,86,0.00,,,0.06,137.0,meteohub,2013-02-24 17:47:00,
2013-02-24 12:52:00,38.8,34.7,29.78,NW,319,3.0,13.0,85,0.00,,,0.06,192.0,meteohub,2013-02-24 17:52:00,
2013-02-24 12:57:00,38.8,34.3,29.78,WNW,284,1.0,13.0,84,0.00,,,0.06,172.0,meteohub,2013-02-24 17:57:00,
2013-02-24 13:02:00,39.0,34.3,29.78,WNW,285,0.0,11.0,83,0.00,,,0.06,178.0,meteohub,2013-02-24 18:02:00,
2013-02-24 13:07:00,39.2,34.5,29.78,West,272,1.0,11.0,83,0.00,,,0.06,186.0,meteohub,2013-02-24 18:07:00,
2013-02-24 13:12:00,39.4,34.3,29.78,WNW,298,3.0,11.0,82,0.00,,,0.06,195.0,meteohub,2013-02-24 18:12:00,
2013-02-24 13:17:00,39.4,34.0,29.78,WNW,297,9.0,11.0,81,0.00,,,0.06,183.0,meteohub,2013-02-24 18:17:00,
2013-02-24 13:22:00,39.2,33.6,29.78,WNW,301,2.0,13.0,80,0.00,,,0.06,232.0,meteohub,2013-02-24 18:22:00,
2013-02-24 13:27:00,39.2,33.3,29.78,NNW,333,4.0,13.0,79,0.00,,,0.06,188.0,meteohub,2013-02-24 18:27:00,
2013-02-24 13:32:00,39.2,32.9,29.78,NW,305,2.0,13.0,78,0.00,,,0.06,172.0,meteohub,2013-02-24 18:32:00,
2013-02-24 13:37:00,39.0,32.4,29.78,NNE,30,6.0,13.0,77,0.00,,,0.06,181.0,meteohub,2013-02-24 18:37:00,
2013-02-24 13:42:00,39.0,32.4,29.78,NW,323,0.0,13.0,77,0.00,,,0.06,250.0,meteohub,2013-02-24 18:42:00,
2013-02-24 13:47:00,39.0,32.4,29.78,NW,313,1.0,13.0,77,0.00,,,0.06,278.0,meteohub,2013-02-24 18:47:00,
2013-02-24 13:52:00,39.0,32.2,29.78,WSW,249,3.0,13.0,76,0.00,,,0.06,237.0,meteohub,2013-02-24 18:52:00,
2013-02-24 13:57:00,38.8,31.6,29.78,SW,219,3.0,17.0,75,0.00,,,0.06,237.0,meteohub,2013-02-24 18:57:00,
2013-02-24 14:02:00,38.7,31.8,29.78,NNW,329,3.0,17.0,76,0.00,,,0.06,216.0,meteohub,2013-02-24 19:02:00,
2013-02-24 14:07:00,38.7,31.5,29.78,NW,305,4.0,17.0,75,0.00,,,0.06,156.0,meteohub,2013-02-24 19:07:00,
2013-02-24 14:12:00,38.5,31.3,29.78,WNW,294,5.0,17.0,75,0.00,,,0.06,146.0,meteohub,2013-02-24 19:12:00,
2013-02-24 14:17:00,38.1,30.9,29.78,West,275,2.0,17.0,75,0.00,,,0.06,135.0,meteohub,2013-02-24 19:17:00,
2013-02-24 14:22:00,37.8,30.2,29.78,WNW,289,10.0,18.0,74,0.00,,,0.06,118.0,meteohub,2013-02-24 19:22:00,
2013-02-24 14:27:00,37.8,30.6,29.78,WNW,301,3.0,18.0,75,0.00,,,0.06,125.0,meteohub,2013-02-24 19:27:00,
2013-02-24 14:32:00,37.6,30.4,29.78,WNW,300,5.0,18.0,75,0.00,,,0.06,139.0,meteohub,2013-02-24 19:32:00,
2013-02-24 14:37:00,37.2,30.0,29.79,NW,313,8.0,15.0,75,0.00,,,0.06,135.0,meteohub,2013-02-24 19:37:00,
2013-02-24 14:42:00,37.0,29.5,29.79,NW,313,3.0,15.0,74,0.00,,,0.06,120.0,meteohub,2013-02-24 19:42:00,
2013-02-24 14:47:00,36.9,29.3,29.79,SSE,148,6.0,17.0,74,0.00,,,0.06,114.0,meteohub,2013-02-24 19:47:00,
2013-02-24 14:52:00,36.9,29.3,29.79,WNW,288,12.0,17.0,74,0.00,,,0.06,114.0,meteohub,2013-02-24 19:52:00,
2013-02-24 14:57:00,36.7,29.1,29.79,NW,309,3.0,16.0,74,0.00,,,0.06,105.0,meteohub,2013-02-24 19:57:00,
2013-02-24 15:02:00,36.5,28.8,29.80,NW,304,4.0,16.0,73,0.00,,,0.06,90.0,meteohub,2013-02-24 20:02:00,
2013-02-24 15:07:00,36.3,28.6,29.80,NW,304,10.0,16.0,73,0.00,,,0.06,77.0,meteohub,2013-02-24 20:07:00,
2013-02-24 15:12:00,36.1,27.7,29.80,WNW,297,9.0,17.0,71,0.00,,,0.06,67.0,meteohub,2013-02-24 20:12:00,
2013-02-24 15:17:00,36.1,28.0,29.80,NW,317,7.0,17.0,72,0.00,,,0.06,63.0,meteohub,2013-02-24 20:17:00,
2013-02-24 15:22:00,36.0,27.9,29.80,NW,304,4.0,20.0,72,0.00,,,0.06,47.0,meteohub,2013-02-24 20:22:00,
2013-02-24 15:27:00,36.0,27.9,29.80,WSW,255,5.0,19.0,72,0.00,,,0.06,65.0,meteohub,2013-02-24 20:27:00,
2013-02-24 15:32:00,36.0,27.9,29.80,WNW,290,6.0,19.0,72,0.00,,,0.06,88.0,meteohub,2013-02-24 20:32:00,
2013-02-24 15:37:00,36.0,27.9,29.81,West,267,2.0,16.0,72,0.00,,,0.06,98.0,meteohub,2013-02-24 20:37:00,
2013-02-24 15:42:00,36.0,27.9,29.81,WNW,286,4.0,16.0,72,0.00,,,0.06,86.0,meteohub,2013-02-24 20:42:00,
2013-02-24 15:47:00,36.0,27.9,29.80,WNW,299,6.0,17.0,72,0.00,,,0.06,62.0,meteohub,2013-02-24 20:47:00,
2013-02-24 15:52:00,35.8,27.7,29.81,WNW,284,5.0,17.0,72,0.00,,,0.06,39.0,meteohub,2013-02-24 20:52:00,
2013-02-24 15:57:00,35.8,27.7,29.81,NW,313,8.0,16.0,72,0.00,,,0.06,28.0,meteohub,2013-02-24 20:57:00,
2013-02-24 16:02:00,35.6,27.5,29.81,West,265,0.0,16.0,72,0.00,,,0.06,19.0,meteohub,2013-02-24 21:02:00,
2013-02-24 16:07:00,35.4,27.3,29.81,NNW,333,4.0,16.0,72,0.00,,,0.06,16.0,meteohub,2013-02-24 21:07:00,
2013-02-24 16:12:00,35.4,27.3,29.81,NNW,331,3.0,16.0,72,0.00,,,0.06,14.0,meteohub,2013-02-24 21:12:00,
2013-02-24 16:17:00,35.2,27.1,29.82,NW,315,2.0,16.0,72,0.00,,,0.06,16.0,meteohub,2013-02-24 21:17:00,
2013-02-24 16:22:00,35.2,27.1,29.82,WNW,290,3.0,18.0,72,0.00,,,0.06,18.0,meteohub,2013-02-24 21:22:00,
2013-02-24 16:27:00,35.1,27.0,29.82,WNW,302,4.0,16.0,72,0.00,,,0.06,18.0,meteohub,2013-02-24 21:27:00,
2013-02-24 16:32:00,35.1,27.3,29.82,WNW,303,3.0,16.0,73,0.00,,,0.06,18.0,meteohub,2013-02-24 21:32:00,
2013-02-24 16:37:00,35.1,27.3,29.82,WNW,301,3.0,16.0,73,0.00,,,0.06,21.0,meteohub,2013-02-24 21:37:00,
2013-02-24 16:42:00,34.9,27.1,29.83,NW,323,5.0,16.0,73,0.00,,,0.06,26.0,meteohub,2013-02-24 21:42:00,
2013-02-24 16:47:00,34.9,27.1,29.83,WNW,292,9.0,12.0,73,0.00,,,0.06,25.0,meteohub,2013-02-24 21:47:00,
2013-02-24 16:52:00,34.9,27.1,29.83,WNW,290,3.0,12.0,73,0.00,,,0.06,18.0,meteohub,2013-02-24 21:52:00,
2013-02-24 16:57:00,34.9,27.5,29.83,North,355,5.0,12.0,74,0.00,,,0.06,14.0,meteohub,2013-02-24 21:57:00,
2013-02-24 17:02:00,34.9,27.5,29.84,NW,310,6.0,12.0,74,0.00,,,0.06,14.0,meteohub,2013-02-24 22:02:00,
2013-02-24 17:07:00,34.9,27.5,29.84,West,259,2.0,12.0,74,0.00,,,0.06,11.0,meteohub,2013-02-24 22:07:00,
2013-02-24 17:12:00,34.7,27.3,29.84,NW,315,0.0,19.0,74,0.00,,,0.06,7.0,meteohub,2013-02-24 22:12:00,
2013-02-24 17:17:00,34.5,27.5,29.84,West,271,4.0,19.0,75,0.00,,,0.06,5.0,meteohub,2013-02-24 22:17:00,
2013-02-24 17:22:00,34.5,27.5,29.85,NW,318,5.0,13.0,75,0.00,,,0.06,0.0,meteohub,2013-02-24 22:22:00,
2013-02-24 17:27:00,34.5,27.7,29.85,West,271,1.0,12.0,76,0.00,,,0.06,0.0,meteohub,2013-02-24 22:27:00,
2013-02-24 17:32:00,34.5,27.7,29.85,NW,322,3.0,12.0,76,0.00,,,0.06,0.0,meteohub,2013-02-24 22:32:00,
2013-02-24 17:37:00,34.3,27.9,29.85,WNW,300,1.0,12.0,77,0.00,,,0.06,0.0,meteohub,2013-02-24 22:37:00,
2013-02-24 17:42:00,34.3,27.9,29.86,WNW,288,5.0,12.0,77,0.00,,,0.06,0.0,meteohub,2013-02-24 22:42:00,
2013-02-24 17:47:00,34.3,27.9,29.86,West,273,1.0,11.0,77,0.00,,,0.06,0.0,meteohub,2013-02-24 22:47:00,
2013-02-24 17:52:00,34.2,28.0,29.87,NW,307,5.0,11.0,78,0.00,,,0.06,0.0,meteohub,2013-02-24 22:52:00,
2013-02-24 17:57:00,34.2,28.0,29.87,NNW,347,2.0,11.0,78,0.00,,,0.06,0.0,meteohub,2013-02-24 22:57:00,
2013-02-24 18:02:00,34.0,28.2,29.87,WSW,240,5.0,11.0,79,0.00,,,0.06,0.0,meteohub,2013-02-24 23:02:00,
2013-02-24 18:07:00,33.8,28.2,29.88,WNW,302,2.0,11.0,80,0.00,,,0.06,0.0,meteohub,2013-02-24 23:07:00,
2013-02-24 18:12:00,33.6,28.4,29.88,WNW,293,1.0,15.0,81,0.00,,,0.06,0.0,meteohub,2013-02-24 23:12:00,
2013-02-24 18:17:00,33.4,28.2,29.88,WNW,298,5.0,15.0,81,0.00,,,0.06,0.0,meteohub,2013-02-24 23:17:00,
2013-02-24 18:22:00,33.4,28.6,29.88,West,269,4.0,8.0,82,0.00,,,0.06,0.0,meteohub,2013-02-24 23:22:00,
2013-02-24 18:27:00,33.3,28.4,29.89,NW,321,1.0,8.0,82,0.00,,,0.06,0.0,meteohub,2013-02-24 23:27:00,
2013-02-24 18:32:00,33.3,28.6,29.89,NW,306,3.0,8.0,83,0.00,,,0.06,0.0,meteohub,2013-02-24 23:32:00,
2013-02-24 18:37:00,33.1,28.4,29.89,NW,318,3.0,11.0,83,0.00,,,0.06,0.0,meteohub,2013-02-24 23:37:00,
2013-02-24 18:42:00,33.1,28.4,29.90,West,259,1.0,11.0,83,0.00,,,0.06,0.0,meteohub,2013-02-24 23:42:00,
2013-02-24 18:47:00,33.1,28.8,29.90,NW,324,1.0,9.0,84,0.00,,,0.06,0.0,meteohub,2013-02-24 23:47:00,
2013-02-24 18:52:00,33.1,28.8,29.90,North,355,2.0,9.0,84,0.00,,,0.06,0.0,meteohub,2013-02-24 23:52:00,
2013-02-24 18:57:00,32.9,28.6,29.90,WNW,290,2.0,13.0,84,0.00,,,0.06,0.0,meteohub,2013-02-24 23:57:00,
2013-02-24 19:03:00,32.9,28.6,29.90,NW,314,0.0,13.0,84,0.00,,,0.06,0.0,meteohub,2013-02-25 00:03:00,
2013-02-24 19:08:00,32.7,28.4,29.91,NW,306,0.0,13.0,84,0.00,,,0.06,0.0,meteohub,2013-02-25 00:08:00,
2013-02-24 19:13:00,32.7,28.8,29.91,WSW,254,0.0,13.0,85,0.00,,,0.06,0.0,meteohub,2013-02-25 00:13:00,
2013-02-24 19:18:00,32.7,28.8,29.91,NW,324,5.0,13.0,85,0.00,,,0.06,0.0,meteohub,2013-02-25 00:18:00,
2013-02-24 19:24:00,32.7,28.8,29.91,WSW,254,1.0,13.0,85,0.00,,,0.06,0.0,meteohub,2013-02-25 00:24:00,
2013-02-24 19:29:00,32.7,28.8,29.91,WNW,299,2.0,13.0,85,0.00,,,0.06,0.0,meteohub,2013-02-25 00:29:00,
2013-02-24 19:34:00,32.7,28.8,29.92,NW,308,0.0,13.0,85,0.00,,,0.06,0.0,meteohub,2013-02-25 00:34:00,
2013-02-24 19:40:00,32.7,28.8,29.92,West,275,1.0,11.0,85,0.00,,,0.06,0.0,meteohub,2013-02-25 00:40:00,
2013-02-24 19:45:00,32.7,28.8,29.92,NW,310,2.0,11.0,85,0.00,,,0.06,0.0,meteohub,2013-02-25 00:45:00,
2013-02-24 19:50:00,32.7,28.9,29.92,WSW,252,1.0,11.0,86,0.00,,,0.06,0.0,meteohub,2013-02-25 00:50:00,
2013-02-24 19:56:00,32.7,28.9,29.93,NW,321,1.0,10.0,86,0.00,,,0.06,0.0,meteohub,2013-02-25 00:56:00,
2013-02-24 20:01:00,32.7,28.9,29.93,West,281,0.0,10.0,86,0.00,,,0.06,0.0,meteohub,2013-02-25 01:01:00,
2013-02-24 20:06:00,32.7,28.9,29.93,WNW,299,4.0,10.0,86,0.00,,,0.06,0.0,meteohub,2013-02-25 01:06:00,
2013-02-24 20:11:00,32.7,28.9,29.93,WNW,299,1.0,12.0,86,0.00,,,0.06,0.0,meteohub,2013-02-25 01:11:00,
2013-02-24 20:16:00,32.7,28.9,29.93,West,277,1.0,12.0,86,0.00,,,0.06,0.0,meteohub,2013-02-25 01:16:00,
2013-02-24 20:22:00,32.7,28.9,29.94,South,182,1.0,7.0,86,0.00,,,0.06,0.0,meteohub,2013-02-25 01:22:00,
2013-02-24 20:27:00,32.7,28.9,29.94,NW,319,0.0,9.0,86,0.00,,,0.06,0.0,meteohub,2013-02-25 01:27:00,
2013-02-24 20:32:00,32.7,28.9,29.94,West,269,0.0,9.0,86,0.00,,,0.06,0.0,meteohub,2013-02-25 01:32:00,
2013-02-24 20:37:00,32.7,28.9,29.94,NW,313,2.0,9.0,86,0.00,,,0.06,0.0,meteohub,2013-02-25 01:37:00,
2013-02-24 20:42:00,32.7,28.9,29.94,NW,321,0.0,9.0,86,0.00,,,0.06,0.0,meteohub,2013-02-25 01:42:00,
2013-02-24 20:47:00,32.7,28.9,29.94,WNW,298,0.0,6.0,86,0.00,,,0.06,0.0,meteohub,2013-02-25 01:47:00,
2013-02-24 20:52:00,32.7,28.9,29.94,NW,319,2.0,6.0,86,0.00,,,0.06,0.0,meteohub,2013-02-25 01:52:00,
2013-02-24 20:57:00,32.7,28.9,29.94,NE,45,0.0,5.0,86,0.00,,,0.06,0.0,meteohub,2013-02-25 01:57:00,
2013-02-24 21:02:00,32.7,28.8,29.95,NNW,341,0.0,5.0,85,0.00,,,0.06,0.0,meteohub,2013-02-25 02:02:00,
2013-02-24 21:07:00,32.7,28.8,29.95,WSW,246,2.0,5.0,85,0.00,,,0.06,0.0,meteohub,2013-02-25 02:07:00,
2013-02-24 21:12:00,32.7,28.8,29.95,SSE,168,4.0,11.0,85,0.00,,,0.06,0.0,meteohub,2013-02-25 02:12:00,
2013-02-24 21:17:00,32.7,28.8,29.95,WNW,290,0.0,11.0,85,0.00,,,0.06,0.0,meteohub,2013-02-25 02:17:00,
2013-02-24 21:22:00,32.7,28.8,29.95,NW,312,0.0,11.0,85,0.00,,,0.06,0.0,meteohub,2013-02-25 02:22:00,
2013-02-24 21:27:00,32.7,28.4,29.95,NW,306,1.0,9.0,84,0.00,,,0.06,0.0,meteohub,2013-02-25 02:27:00,
2013-02-24 21:32:00,32.9,28.6,29.95,WNW,293,0.0,9.0,84,0.00,,,0.06,0.0,meteohub,2013-02-25 02:32:00,
2013-02-24 21:37:00,32.7,28.4,29.95,WNW,285,1.0,6.0,84,0.00,,,0.06,0.0,meteohub,2013-02-25 02:37:00,
2013-02-24 21:42:00,32.9,28.6,29.96,West,259,2.0,6.0,84,0.00,,,0.06,0.0,meteohub,2013-02-25 02:42:00,
2013-02-24 21:47:00,32.9,28.2,29.96,WNW,300,2.0,9.0,83,0.00,,,0.06,0.0,meteohub,2013-02-25 02:47:00,
2013-02-24 21:52:00,32.9,28.2,29.96,WNW,294,2.0,9.0,83,0.00,,,0.06,0.0,meteohub,2013-02-25 02:52:00,
2013-02-24 21:57:00,32.9,28.2,29.96,NNW,336,1.0,10.0,83,0.00,,,0.06,0.0,meteohub,2013-02-25 02:57:00,
2013-02-24 22:02:00,32.9,28.0,29.96,NNW,336,3.0,10.0,82,0.00,,,0.06,0.0,meteohub,2013-02-25 03:02:00,
2013-02-24 22:07:00,32.9,28.0,29.96,NW,304,2.0,10.0,82,0.00,,,0.06,0.0,meteohub,2013-02-25 03:07:00,
2013-02-24 22:12:00,32.9,27.7,29.96,WNW,282,11.0,11.0,81,0.00,,,0.06,0.0,meteohub,2013-02-25 03:12:00,
2013-02-24 22:17:00,32.9,27.7,29.96,NW,304,3.0,11.0,81,0.00,,,0.06,0.0,meteohub,2013-02-25 03:17:00,
2013-02-24 22:23:00,32.9,27.7,29.96,NW,325,2.0,12.0,81,0.00,,,0.06,0.0,meteohub,2013-02-25 03:23:00,
2013-02-24 22:28:00,32.9,27.7,29.96,NW,315,0.0,12.0,81,0.00,,,0.06,0.0,meteohub,2013-02-25 03:28:00,
2013-02-24 22:33:00,32.9,27.7,29.96,WNW,289,0.0,12.0,81,0.00,,,0.06,0.0,meteohub,2013-02-25 03:33:00,
2013-02-24 22:38:00,32.9,27.7,29.96,WNW,290,4.0,10.0,81,0.00,,,0.06,0.0,meteohub,2013-02-25 03:38:00,
2013-02-24 22:44:00,32.9,27.7,29.96,WNW,288,0.0,10.0,81,0.00,,,0.06,0.0,meteohub,2013-02-25 03:44:00,
2013-02-24 22:49:00,32.7,27.5,29.96,WNW,298,1.0,10.0,81,0.00,,,0.06,0.0,meteohub,2013-02-25 03:49:00,
2013-02-24 22:54:00,32.7,27.5,29.96,NNE,29,2.0,10.0,81,0.00,,,0.06,0.0,meteohub,2013-02-25 03:54:00,
2013-02-24 23:00:00,32.7,27.5,29.96,West,269,4.0,11.0,81,0.00,,,0.06,0.0,meteohub,2013-02-25 04:00:00,
2013-02-24 23:05:00,32.7,27.5,29.96,WNW,292,7.0,11.0,81,0.00,,,0.06,0.0,meteohub,2013-02-25 04:05:00,
2013-02-24 23:10:00,32.9,27.7,29.96,WNW,288,0.0,11.0,81,0.00,,,0.06,0.0,meteohub,2013-02-25 04:10:00,
2013-02-24 23:16:00,32.7,27.5,29.96,West,268,0.0,11.0,81,0.00,,,0.06,0.0,meteohub,2013-02-25 04:16:00,
2013-02-24 23:21:00,32.7,27.5,29.97,NW,304,3.0,11.0,81,0.00,,,0.06,0.0,meteohub,2013-02-25 04:21:00,
2013-02-24 23:27:00,32.7,27.5,29.97,WNW,290,11.0,11.0,81,0.00,,,0.06,0.0,meteohub,2013-02-25 04:27:00,
2013-02-24 23:32:00,32.7,27.5,29.97,WNW,296,4.0,10.0,81,0.00,,,0.06,0.0,meteohub,2013-02-25 04:32:00,
2013-02-24 23:37:00,32.7,27.5,29.97,NNE,18,2.0,13.0,81,0.00,,,0.06,0.0,meteohub,2013-02-25 04:37:00,
2013-02-24 23:42:00,32.7,27.5,29.98,North,355,1.0,13.0,81,0.00,,,0.06,0.0,meteohub,2013-02-25 04:42:00,
2013-02-24 23:47:00,32.7,27.5,29.98,WNW,302,1.0,10.0,81,0.00,,,0.06,0.0,meteohub,2013-02-25 04:47:00,
2013-02-24 23:52:00,32.7,27.5,29.98,WSW,247,2.0,10.0,81,0.00,,,0.06,0.0,meteohub,2013-02-25 04:52:00,
2013-02-24 23:57:00,32.7,27.5,29.98,WNW,297,1.0,7.0,81,0.00,,,0.06,0.0,meteohub,2013-02-25 04:57:00,